Monroe, Tennessee
Current Conditions -  °F | °C
As of 11:35 AM on Friday 21 Nov 2014 (Local Time) from KSRB Reporting Station
Clear Clear  
Wind Chill: 46°   Ceiling: Unl
Heat Index: 46°   Visibility: 10mi
Dew Point: 23°   Wind: 0mph
Humidity: 40%   Direction: NA
Pressure: 30.41"   Gusts: NA
Location:  36.44°N, 85.24°W
Report Text: KSRB 211735Z AUTO 00000KT 10SM CLR 08/M05 A3041 RMK
Loading
Personal Weather Stations






























Interactive Weather Map New forecast layout! Learn more

10-Day Weather Forecast

Advertisements
Track Severe Weather on mobile